Terminal Aerodrome Forecast
Issued by NWS

Home | Current Version | Previous Version | Text Only | Print | Product List | Glossary On
Versions: 1 2 3 4 5 6 7 8 9 10 11 12 13 14 15 16 17 18 19 20 21 22 23 24 25 26 27 28 29 30
000
FTUS41 KRNK 191724
TAFBCB
TAF
KBCB 191724Z 1918/2018 00000KT P6SM BKN070
     FM200400 00000KT P6SM VCSH BKN070
     FM200800 VRB03KT 5SM -RA OVC035
     FM201200 VRB03KT 1SM -RA BR OVC007
     FM201600 20004KT 2SM -RA BR OVC004=

USA.gov is the U.S. government's official web portal to all federal, state and local government web resources and services.